createdAt,value
2023-03-19T00:00:36.953Z,3.67
2023-03-19T00:03:08.156Z,4.13
2023-03-19T00:05:38.114Z,2.87
2023-03-19T00:08:08.780Z,3.47
2023-03-19T00:10:43.681Z,3.57
2023-03-19T00:13:14.598Z,3.63
2023-03-19T00:15:44.500Z,3.77
2023-03-19T00:18:14.766Z,3.70
2023-03-19T00:20:44.617Z,3.67
2023-03-19T00:23:14.794Z,4.00
2023-03-19T00:25:47.418Z,4.10
2023-03-19T00:28:17.281Z,4.07
2023-03-19T00:30:47.829Z,3.80
2023-03-19T00:33:18.341Z,5.17
2023-03-19T00:35:49.263Z,3.87
2023-03-19T00:38:19.310Z,3.90
2023-03-19T00:40:51.791Z,4.33
2023-03-19T00:43:22.020Z,4.80
2023-03-19T00:45:52.053Z,4.57
2023-03-19T00:48:22.099Z,4.37
2023-03-19T00:50:52.343Z,5.50
2023-03-19T00:53:23.526Z,4.73
2023-03-19T00:55:56.215Z,4.90
2023-03-19T00:58:26.068Z,4.20
2023-03-19T01:00:56.390Z,4.57
2023-03-19T01:03:26.983Z,4.80
2023-03-19T01:05:57.107Z,5.03
2023-03-19T01:08:28.076Z,7.73
2023-03-19T01:11:07.087Z,6.90
2023-03-19T01:13:37.674Z,5.40
2023-03-19T01:16:08.100Z,4.50
2023-03-19T01:18:38.498Z,4.20
2023-03-19T01:21:09.060Z,4.53
2023-03-19T01:23:45.860Z,4.93
2023-03-19T01:26:18.777Z,4.70
2023-03-19T01:28:50.520Z,4.63
2023-03-19T01:31:23.053Z,4.67
2023-03-19T01:34:05.865Z,5.00
2023-03-19T01:36:42.748Z,4.00
2023-03-19T01:39:14.183Z,4.00
2023-03-19T01:41:47.522Z,4.20
2023-03-19T01:44:38.483Z,3.60
2023-03-19T01:47:41.558Z,3.93
2023-03-19T01:50:27.509Z,4.37
2023-03-19T01:53:20.565Z,3.60
2023-03-19T01:56:03.002Z,4.27
2023-03-19T01:59:00.188Z,3.53
2023-03-19T02:01:50.829Z,3.63
2023-03-19T02:04:22.674Z,3.83
2023-03-19T02:06:52.903Z,4.00
2023-03-19T02:09:23.749Z,3.90
2023-03-19T02:11:54.243Z,3.73
2023-03-19T02:14:27.436Z,3.80
2023-03-19T02:16:57.915Z,4.23
2023-03-19T02:19:33.321Z,3.57
2023-03-19T02:22:03.852Z,3.37
2023-03-19T02:24:40.958Z,2.90
2023-03-19T02:27:18.339Z,2.60
2023-03-19T02:29:52.254Z,2.80
2023-03-19T02:32:26.412Z,3.30
2023-03-19T02:34:57.523Z,3.60
2023-03-19T02:37:33.557Z,3.93
2023-03-19T02:40:08.079Z,2.57
2023-03-19T02:42:41.181Z,5.90
2023-03-19T02:45:12.881Z,4.30
2023-03-19T02:47:43.336Z,4.60
2023-03-19T02:50:14.115Z,5.50
2023-03-19T02:52:44.272Z,5.03
2023-03-19T02:55:14.365Z,2.80
2023-03-19T02:57:47.992Z,2.70
2023-03-19T03:00:20.932Z,3.33
2023-03-19T03:02:52.189Z,3.33
2023-03-19T03:05:22.713Z,2.27
2023-03-19T03:07:53.884Z,3.60
2023-03-19T03:10:23.753Z,2.80
2023-03-19T03:12:57.546Z,2.50
2023-03-19T03:15:27.484Z,3.50
2023-03-19T03:17:58.528Z,2.37
2023-03-19T03:20:28.557Z,3.80
2023-03-19T03:22:59.051Z,2.27
2023-03-19T03:25:28.902Z,2.20
2023-03-19T03:28:01.686Z,2.07
2023-03-19T03:30:32.262Z,2.13
2023-03-19T03:33:02.927Z,2.50
2023-03-19T03:35:33.162Z,2.20
2023-03-19T03:38:04.697Z,2.47
2023-03-19T03:40:36.941Z,1.70
2023-03-19T03:43:10.155Z,2.43
2023-03-19T03:45:40.794Z,2.20
2023-03-19T03:48:11.529Z,2.70
2023-03-19T03:50:41.679Z,2.40
2023-03-19T03:53:15.497Z,2.30
2023-03-19T03:55:45.298Z,2.60
2023-03-19T03:58:18.604Z,2.30
2023-03-19T04:00:49.318Z,2.60
2023-03-19T04:03:19.798Z,2.50
2023-03-19T04:05:49.716Z,2.37
2023-03-19T04:08:19.994Z,2.30
2023-03-19T04:10:49.921Z,2.23
2023-03-19T04:13:23.306Z,2.53
2023-03-19T04:15:54.631Z,1.97
2023-03-19T04:18:26.169Z,1.90
2023-03-19T04:20:56.026Z,2.60
2023-03-19T04:23:26.135Z,2.37
2023-03-19T04:25:56.336Z,2.80
2023-03-19T04:28:29.482Z,2.70
2023-03-19T04:31:02.787Z,2.67
2023-03-19T04:33:34.875Z,2.93
2023-03-19T04:36:05.377Z,2.50
2023-03-19T04:38:35.826Z,2.63
2023-03-19T04:41:09.045Z,3.00
2023-03-19T04:43:45.382Z,2.43
2023-03-19T04:46:15.606Z,3.10
2023-03-19T04:48:46.798Z,2.50
2023-03-19T04:51:17.077Z,3.23
2023-03-19T04:53:47.959Z,1.90
2023-03-19T04:56:18.690Z,3.37
2023-03-19T04:58:51.646Z,3.13
2023-03-19T05:01:21.601Z,16.33
2023-03-19T05:04:04.207Z,7.00
2023-03-19T05:06:37.765Z,2.37
2023-03-19T05:09:09.498Z,3.70
2023-03-19T05:11:39.844Z,1.50
2023-03-19T05:14:19.559Z,2.47
2023-03-19T05:17:11.249Z,2.87
2023-03-19T05:20:05.225Z,4.63
2023-03-19T05:22:36.886Z,3.03
2023-03-19T05:25:08.730Z,3.87
2023-03-19T05:27:39.361Z,2.67
2023-03-19T05:30:16.094Z,2.10
2023-03-19T05:32:51.545Z,3.10
2023-03-19T05:35:32.332Z,3.20
2023-03-19T05:38:04.369Z,2.50
2023-03-19T05:40:35.333Z,2.80
2023-03-19T05:43:15.750Z,2.50
2023-03-19T05:45:53.916Z,2.60
2023-03-19T05:48:28.349Z,2.60
2023-03-19T05:50:59.468Z,2.80
2023-03-19T05:53:34.184Z,3.10
2023-03-19T05:56:24.419Z,2.57
2023-03-19T05:59:23.708Z,2.30
2023-03-19T06:02:19.353Z,2.90
2023-03-19T06:04:51.635Z,2.80
2023-03-19T06:07:25.910Z,2.50
2023-03-19T06:10:00.432Z,2.57
2023-03-19T06:12:31.190Z,2.77
2023-03-19T06:15:31.804Z,2.53
2023-03-19T06:18:26.293Z,2.60
2023-03-19T06:20:57.457Z,2.80
2023-03-19T06:23:28.230Z,3.10
2023-03-19T06:26:01.103Z,3.30
2023-03-19T06:28:45.551Z,3.30
2023-03-19T06:31:18.755Z,2.63
2023-03-19T06:34:18.749Z,2.73
2023-03-19T06:36:49.256Z,2.60
2023-03-19T06:39:24.049Z,2.77
2023-03-19T06:41:53.946Z,3.93
2023-03-19T06:44:27.726Z,3.40
2023-03-19T06:46:57.501Z,2.97
2023-03-19T06:49:30.008Z,3.73
2023-03-19T06:51:59.771Z,3.73
2023-03-19T06:54:38.511Z,3.40
2023-03-19T06:57:08.576Z,3.63
2023-03-19T06:59:40.395Z,4.03
2023-03-19T07:02:12.480Z,5.50
2023-03-19T07:04:44.910Z,4.40
2023-03-19T07:07:15.110Z,3.80
2023-03-19T07:09:46.606Z,3.80
2023-03-19T07:12:17.275Z,4.10
2023-03-19T07:14:47.682Z,4.07
2023-03-19T07:17:17.988Z,5.23
2023-03-19T07:19:51.344Z,4.00
2023-03-19T07:22:21.844Z,4.80
2023-03-19T07:24:52.958Z,4.20
2023-03-19T07:27:23.178Z,4.07
2023-03-19T07:30:02.615Z,3.20
2023-03-19T07:32:32.677Z,3.90
2023-03-19T07:35:06.568Z,3.33
2023-03-19T07:37:36.870Z,3.80
2023-03-19T07:40:07.868Z,5.20
2023-03-19T07:42:38.483Z,4.00
2023-03-19T07:45:09.992Z,4.57
2023-03-19T07:47:40.102Z,4.90
2023-03-19T07:50:14.014Z,4.23
2023-03-19T07:52:43.795Z,3.67
2023-03-19T07:55:13.570Z,4.17
2023-03-19T07:57:44.965Z,4.40
2023-03-19T08:00:16.122Z,5.80
2023-03-19T08:02:48.277Z,4.40
2023-03-19T08:05:22.020Z,4.90
2023-03-19T08:07:52.519Z,4.87
2023-03-19T08:10:22.552Z,4.47
2023-03-19T08:12:54.269Z,3.30
2023-03-19T08:15:24.651Z,3.60
2023-03-19T08:18:01.022Z,3.70
2023-03-19T08:20:34.341Z,3.33
2023-03-19T08:23:05.270Z,3.80
2023-03-19T08:25:35.284Z,3.10
2023-03-19T08:28:05.267Z,3.27
2023-03-19T08:30:35.441Z,2.50
2023-03-19T08:33:06.094Z,3.03
2023-03-19T08:35:38.523Z,2.80
2023-03-19T08:38:08.434Z,2.30
2023-03-19T08:40:39.083Z,1.93
2023-03-19T08:43:09.498Z,1.73
2023-03-19T08:45:39.810Z,1.30
2023-03-19T08:48:09.609Z,1.77
2023-03-19T08:50:42.219Z,1.30
2023-03-19T08:53:12.450Z,1.07
2023-03-19T08:55:44.020Z,1.13
2023-03-19T08:58:14.153Z,1.20
2023-03-19T09:00:44.214Z,1.57
2023-03-19T09:03:15.326Z,1.60
2023-03-19T09:05:48.089Z,1.07
2023-03-19T09:08:18.320Z,1.00
2023-03-19T09:10:49.451Z,1.17
2023-03-19T09:13:20.829Z,1.73
2023-03-19T09:15:51.592Z,1.40
2023-03-19T09:18:24.090Z,1.60
2023-03-19T09:20:57.412Z,1.43
2023-03-19T09:23:27.387Z,1.43
2023-03-19T09:25:58.590Z,1.43
2023-03-19T09:28:29.414Z,1.60
2023-03-19T09:31:17.365Z,1.43
2023-03-19T09:33:49.459Z,1.60
2023-03-19T09:36:22.772Z,1.63
2023-03-19T09:38:52.687Z,1.50
2023-03-19T09:41:30.449Z,1.20
2023-03-19T09:44:05.797Z,1.50
2023-03-19T09:46:43.409Z,1.40
2023-03-19T09:49:19.472Z,1.77
2023-03-19T09:51:54.322Z,1.50
2023-03-19T09:54:35.692Z,1.70
2023-03-19T09:57:05.729Z,2.03
2023-03-19T09:59:37.056Z,2.00
2023-03-19T10:02:31.787Z,2.30
2023-03-19T10:05:11.236Z,2.03
2023-03-19T10:08:11.358Z,2.00
2023-03-19T10:10:51.921Z,2.03
2023-03-19T10:13:39.749Z,2.30
2023-03-19T10:16:17.832Z,2.27
2023-03-19T10:18:51.097Z,2.10
2023-03-19T10:21:28.643Z,2.50
2023-03-19T10:24:06.631Z,2.67
2023-03-19T10:26:38.354Z,2.27
2023-03-19T10:29:11.380Z,2.57
2023-03-19T10:31:51.250Z,2.87
2023-03-19T10:34:32.040Z,3.60
2023-03-19T10:37:04.269Z,2.83
2023-03-19T10:39:41.440Z,3.13
2023-03-19T10:42:31.976Z,3.17
2023-03-19T10:45:07.292Z,3.37
2023-03-19T10:47:42.154Z,3.40
2023-03-19T10:50:19.097Z,3.57
2023-03-19T10:52:54.269Z,3.07
2023-03-19T10:55:33.229Z,2.73
2023-03-19T10:58:07.496Z,3.10
2023-03-19T11:00:38.261Z,3.33
2023-03-19T11:03:29.509Z,2.57
2023-03-19T11:06:17.877Z,3.43
2023-03-19T11:08:55.704Z,2.37
2023-03-19T11:11:35.849Z,2.73
2023-03-19T11:14:11.561Z,2.43
2023-03-19T11:16:51.517Z,3.40
2023-03-19T11:19:24.170Z,2.53
2023-03-19T11:22:11.453Z,2.67
2023-03-19T11:24:42.531Z,2.33
2023-03-19T11:27:13.175Z,2.70
2023-03-19T11:29:44.851Z,2.43
2023-03-19T11:32:59.948Z,2.70
2023-03-19T11:35:35.525Z,3.40
2023-03-19T11:38:15.818Z,2.90
2023-03-19T11:40:57.979Z,4.53
2023-03-19T11:44:05.228Z,3.00
2023-03-19T11:47:01.291Z,2.43
2023-03-19T11:50:03.084Z,2.30
2023-03-19T11:52:53.463Z,2.67
2023-03-19T11:55:32.828Z,2.70
2023-03-19T11:58:22.759Z,2.67
2023-03-19T12:00:55.474Z,2.67
2023-03-19T12:03:43.525Z,3.00
2023-03-19T12:06:27.778Z,3.60
2023-03-19T12:09:04.327Z,3.03
2023-03-19T12:11:46.970Z,3.10
2023-03-19T12:14:30.300Z,3.30
2023-03-19T12:17:13.245Z,3.60
2023-03-19T12:20:05.007Z,3.90
2023-03-19T12:22:48.118Z,3.50
2023-03-19T12:25:44.880Z,3.50
2023-03-19T12:28:24.314Z,3.80
2023-03-19T12:31:17.996Z,4.10
2023-03-19T12:33:55.334Z,3.70
2023-03-19T12:36:29.302Z,3.40
2023-03-19T12:39:05.429Z,3.70
2023-03-19T12:41:38.910Z,2.87
2023-03-19T12:44:14.865Z,3.20
2023-03-19T12:46:48.789Z,3.23
2023-03-19T12:49:23.556Z,3.40
2023-03-19T12:51:58.046Z,3.50
2023-03-19T12:54:31.603Z,2.70
2023-03-19T12:57:07.127Z,3.00
2023-03-19T12:59:43.380Z,2.67
2023-03-19T13:02:22.148Z,2.47
2023-03-19T13:04:56.201Z,2.43
2023-03-19T13:07:36.216Z,2.60
2023-03-19T13:10:09.364Z,2.87
2023-03-19T13:12:41.274Z,1.93
2023-03-19T13:15:20.305Z,2.70
2023-03-19T13:18:00.332Z,2.23
2023-03-19T13:20:42.320Z,2.60
2023-03-19T13:23:22.000Z,2.33
2023-03-19T13:25:53.063Z,2.20
2023-03-19T13:28:29.319Z,2.40
2023-03-19T13:31:07.870Z,2.17
2023-03-19T13:33:39.357Z,2.37
2023-03-19T13:36:15.794Z,2.07
2023-03-19T13:38:50.685Z,2.53
2023-03-19T13:41:50.582Z,2.40
2023-03-19T13:44:42.958Z,2.20
2023-03-19T13:47:45.275Z,1.80
2023-03-19T13:50:26.492Z,2.30
2023-03-19T13:53:15.223Z,1.50
2023-03-19T13:55:53.794Z,1.67
2023-03-19T13:58:39.293Z,1.57
2023-03-19T14:01:10.887Z,2.03
2023-03-19T14:03:56.627Z,1.83
2023-03-19T14:06:41.622Z,2.40
2023-03-19T14:09:37.863Z,2.10
2023-03-19T14:12:23.892Z,2.40
2023-03-19T14:14:56.294Z,1.80
2023-03-19T14:17:30.689Z,2.00
2023-03-19T14:20:09.691Z,2.90
2023-03-19T14:22:43.235Z,2.83
2023-03-19T14:25:21.404Z,2.40
2023-03-19T14:27:53.352Z,2.10
2023-03-19T14:30:34.485Z,3.20
2023-03-19T14:33:08.436Z,2.20
2023-03-19T14:35:44.398Z,2.40
2023-03-19T14:38:18.558Z,2.17
2023-03-19T14:40:53.897Z,2.23
2023-03-19T14:43:49.533Z,2.20
2023-03-19T14:46:28.325Z,2.00
2023-03-19T14:49:29.027Z,2.17
2023-03-19T14:52:06.146Z,2.13
2023-03-19T14:54:43.502Z,1.00
2023-03-19T14:57:20.956Z,1.90
2023-03-19T14:59:52.242Z,1.60
2023-03-19T15:02:30.635Z,1.90
2023-03-19T15:05:08.858Z,1.70
2023-03-19T15:07:52.312Z,1.37
2023-03-19T15:10:24.015Z,1.60
2023-03-19T15:13:14.612Z,1.27
2023-03-19T15:16:00.841Z,1.60
2023-03-19T15:18:31.011Z,4.73
2023-03-19T15:21:01.084Z,2.50
2023-03-19T15:23:34.312Z,1.67
2023-03-19T15:26:08.802Z,1.50
2023-03-19T15:28:49.687Z,1.87
2023-03-19T15:31:32.017Z,1.87
2023-03-19T15:34:21.367Z,1.67
2023-03-19T15:36:56.274Z,1.30
2023-03-19T15:39:32.266Z,1.30
2023-03-19T15:42:02.560Z,1.80
2023-03-19T15:44:36.575Z,1.00
2023-03-19T15:47:08.934Z,1.00
2023-03-19T15:49:42.362Z,0.90
2023-03-19T15:52:17.652Z,1.03
2023-03-19T15:54:50.372Z,0.80
2023-03-19T15:57:21.075Z,0.70
2023-03-19T15:59:54.447Z,1.10
2023-03-19T16:02:28.829Z,1.20
2023-03-19T16:07:57.789Z,1.03
2023-03-19T16:10:42.442Z,0.80
2023-03-19T16:13:41.661Z,0.60
2023-03-19T16:16:21.600Z,0.90
2023-03-19T16:18:54.410Z,0.80
2023-03-19T16:21:27.598Z,0.90
2023-03-19T16:24:00.968Z,1.50
2023-03-19T16:26:40.476Z,1.27
2023-03-19T16:29:22.244Z,1.13
2023-03-19T16:31:54.996Z,1.10
2023-03-19T16:34:31.908Z,1.10
2023-03-19T16:37:03.388Z,1.73
2023-03-19T16:39:38.981Z,0.93
2023-03-19T16:42:36.993Z,1.20
2023-03-19T16:45:21.815Z,1.00
2023-03-19T16:47:55.189Z,1.10
2023-03-19T16:50:30.394Z,1.17
2023-03-19T16:53:01.207Z,0.97
2023-03-19T16:55:34.108Z,1.13
2023-03-19T16:58:09.981Z,1.13
2023-03-19T17:00:39.881Z,1.40
2023-03-19T17:03:15.433Z,1.90
2023-03-19T17:05:46.106Z,1.30
2023-03-19T17:08:16.383Z,1.70
2023-03-19T17:10:50.825Z,2.20
2023-03-19T17:13:28.350Z,1.90
2023-03-19T17:15:59.753Z,1.37
2023-03-19T17:18:32.538Z,1.67
2023-03-19T17:21:06.393Z,1.07
2023-03-19T17:23:38.266Z,1.37
2023-03-19T17:26:16.646Z,1.00
2023-03-19T17:28:49.598Z,1.40
2023-03-19T17:31:27.409Z,1.60
2023-03-19T17:34:03.435Z,1.40
2023-03-19T17:36:33.703Z,2.10
2023-03-19T17:39:03.673Z,2.47
2023-03-19T17:41:35.524Z,1.93
2023-03-19T17:44:08.750Z,1.73
2023-03-19T17:46:42.139Z,4.77
2023-03-19T17:49:19.635Z,3.13
2023-03-19T17:51:49.646Z,3.40
2023-03-19T17:54:19.981Z,2.90
2023-03-19T17:56:50.225Z,2.20
2023-03-19T17:59:22.705Z,2.73
2023-03-19T18:01:52.637Z,3.13
2023-03-19T18:04:24.925Z,3.00
2023-03-19T18:06:57.100Z,2.50
2023-03-19T18:09:28.956Z,1.80
2023-03-19T18:11:59.061Z,3.30
2023-03-19T18:14:31.426Z,3.20
2023-03-19T18:17:01.370Z,3.70
2023-03-19T18:19:34.605Z,3.60
2023-03-19T18:22:05.096Z,3.13
2023-03-19T18:24:34.891Z,2.60
2023-03-19T18:27:05.111Z,2.80
2023-03-19T18:29:37.665Z,3.57
2023-03-19T18:32:13.050Z,3.50
2023-03-19T18:34:43.383Z,3.87
2023-03-19T18:37:17.678Z,5.90
2023-03-19T18:39:47.742Z,4.47
2023-03-19T18:42:17.875Z,2.77
2023-03-19T18:44:50.828Z,3.03
2023-03-19T18:47:20.618Z,2.30
2023-03-19T18:49:50.409Z,1.77
2023-03-19T18:52:20.705Z,2.00
2023-03-19T18:54:50.776Z,1.90
2023-03-19T18:57:20.995Z,1.97
2023-03-19T18:59:53.535Z,4.37
2023-03-19T19:02:32.365Z,4.10
2023-03-19T19:05:02.744Z,2.83
2023-03-19T19:07:33.038Z,4.67
2023-03-19T19:10:05.374Z,4.77
2023-03-19T19:12:35.492Z,3.80
2023-03-19T19:15:10.603Z,2.33
2023-03-19T19:17:42.200Z,3.10
2023-03-19T19:20:17.766Z,3.33
2023-03-19T19:22:47.836Z,4.00
2023-03-19T19:25:21.345Z,3.73
2023-03-19T19:28:01.676Z,4.13
2023-03-19T19:30:35.141Z,4.43
2023-03-19T19:33:05.498Z,5.07
2023-03-19T19:35:35.485Z,3.90
2023-03-19T19:38:05.350Z,3.60
2023-03-19T19:40:36.076Z,4.00
2023-03-19T19:43:06.321Z,3.37
2023-03-19T19:45:41.676Z,3.80
2023-03-19T19:48:17.823Z,5.00
2023-03-19T19:50:49.159Z,3.17
2023-03-19T19:53:21.934Z,3.17
2023-03-19T19:55:51.820Z,2.57
2023-03-19T19:58:24.211Z,2.83
2023-03-19T20:01:03.850Z,3.30
2023-03-19T20:03:36.045Z,2.20
2023-03-19T20:06:06.062Z,2.70
2023-03-19T20:08:36.227Z,2.80
2023-03-19T20:11:06.654Z,3.10
2023-03-19T20:13:38.807Z,1.87
2023-03-19T20:16:13.947Z,2.30
2023-03-19T20:18:44.567Z,2.50
2023-03-19T20:21:15.800Z,1.87
2023-03-19T20:23:48.118Z,1.60
2023-03-19T20:26:19.902Z,1.50
2023-03-19T20:28:51.361Z,1.70
2023-03-19T20:31:29.566Z,2.00
2023-03-19T20:34:00.474Z,2.40
2023-03-19T20:36:30.247Z,3.07
2023-03-19T20:39:00.664Z,3.67
2023-03-19T20:41:30.736Z,2.50
2023-03-19T20:44:05.083Z,2.40
2023-03-19T20:46:39.262Z,3.10
2023-03-19T20:49:10.872Z,3.13
2023-03-19T20:51:41.168Z,3.13
2023-03-19T20:54:11.277Z,2.80
2023-03-19T20:56:42.760Z,2.80
2023-03-19T20:59:13.940Z,3.23
2023-03-19T21:01:46.638Z,2.90
2023-03-19T21:04:21.753Z,3.40
2023-03-19T21:06:53.855Z,3.40
2023-03-19T21:09:27.864Z,3.70
2023-03-19T21:11:57.637Z,2.63
2023-03-19T21:14:27.732Z,3.03
2023-03-19T21:17:00.067Z,2.10
2023-03-19T21:19:30.664Z,4.50
2023-03-19T21:22:00.888Z,2.43
2023-03-19T21:24:31.271Z,2.00
2023-03-19T21:27:03.931Z,2.20
2023-03-19T21:29:36.104Z,2.03
2023-03-19T21:32:13.773Z,2.63
2023-03-19T21:34:43.556Z,2.20
2023-03-19T21:37:13.319Z,2.57
2023-03-19T21:39:43.739Z,2.37
2023-03-19T21:42:19.190Z,2.60
2023-03-19T21:44:51.492Z,3.57
2023-03-19T21:47:25.837Z,2.40
2023-03-19T21:49:56.648Z,3.10
2023-03-19T21:52:26.409Z,3.63
2023-03-19T21:54:56.359Z,2.60
2023-03-19T21:57:26.237Z,2.50
2023-03-19T21:59:56.838Z,3.70
2023-03-19T22:02:42.900Z,3.67
2023-03-19T22:05:21.452Z,4.07
2023-03-19T22:07:51.281Z,2.90
2023-03-19T22:10:21.932Z,4.73
2023-03-19T22:12:52.988Z,4.10
2023-03-19T22:15:28.048Z,6.13
2023-03-19T22:18:01.294Z,6.00
2023-03-19T22:20:31.646Z,5.60
2023-03-19T22:23:01.437Z,6.40
2023-03-19T22:25:35.415Z,6.87
2023-03-19T22:28:08.342Z,6.57
2023-03-19T22:30:40.836Z,6.30
2023-03-19T22:33:18.106Z,5.77
2023-03-19T22:35:49.479Z,5.00
2023-03-19T22:38:20.206Z,4.90
2023-03-19T22:40:52.001Z,5.30
2023-03-19T22:43:30.050Z,4.93
2023-03-19T22:46:03.997Z,4.47
2023-03-19T22:48:37.711Z,4.20
2023-03-19T22:51:07.840Z,4.40
2023-03-19T22:53:39.663Z,3.87
2023-03-19T22:56:10.156Z,3.10
2023-03-19T22:58:40.549Z,2.10
2023-03-19T23:01:33.732Z,2.30
2023-03-19T23:04:19.905Z,2.23
2023-03-19T23:06:50.242Z,1.77
2023-03-19T23:09:22.112Z,2.47
2023-03-19T23:11:52.690Z,1.93
2023-03-19T23:14:31.296Z,2.67
2023-03-19T23:17:03.896Z,2.70
2023-03-19T23:19:39.830Z,1.50
2023-03-19T23:22:16.812Z,1.60
2023-03-19T23:24:47.339Z,0.90
2023-03-19T23:27:26.121Z,1.57
2023-03-19T23:29:56.641Z,2.60
2023-03-19T23:32:26.784Z,3.27
2023-03-19T23:35:01.627Z,2.13
2023-03-19T23:37:32.613Z,2.40
2023-03-19T23:40:02.662Z,2.03
2023-03-19T23:42:34.487Z,2.03
2023-03-19T23:45:06.721Z,2.00
2023-03-19T23:47:37.676Z,1.83
2023-03-19T23:50:15.751Z,2.00
2023-03-19T23:52:45.505Z,2.00
2023-03-19T23:55:16.242Z,1.90
2023-03-19T23:57:46.526Z,2.10
